sensor_id;sensor_type;location;lat;lon;timestamp;temperature;humidity
32698;DHT22;19087;51.062;3.754;2023-12-29T00:00:52;11.20;99.90
32698;DHT22;19087;51.062;3.754;2023-12-29T00:03:19;11.20;99.90
32698;DHT22;19087;51.062;3.754;2023-12-29T00:05:45;11.20;99.90
32698;DHT22;19087;51.062;3.754;2023-12-29T00:08:10;11.20;99.90
32698;DHT22;19087;51.062;3.754;2023-12-29T00:10:36;11.00;99.90
32698;DHT22;19087;51.062;3.754;2023-12-29T00:13:02;10.80;99.90
32698;DHT22;19087;51.062;3.754;2023-12-29T00:15:28;11.00;99.90
32698;DHT22;19087;51.062;3.754;2023-12-29T00:17:54;10.90;99.90
32698;DHT22;19087;51.062;3.754;2023-12-29T00:20:21;11.00;99.90
32698;DHT22;19087;51.062;3.754;2023-12-29T00:22:46;11.00;99.90
32698;DHT22;19087;51.062;3.754;2023-12-29T00:25:12;10.80;99.90
32698;DHT22;19087;51.062;3.754;2023-12-29T00:27:39;10.80;99.90
32698;DHT22;19087;51.062;3.754;2023-12-29T00:30:05;10.90;99.90
32698;DHT22;19087;51.062;3.754;2023-12-29T00:32:31;10.90;99.90
32698;DHT22;19087;51.062;3.754;2023-12-29T00:34:56;11.20;99.90
32698;DHT22;19087;51.062;3.754;2023-12-29T00:37:22;11.00;99.90
32698;DHT22;19087;51.062;3.754;2023-12-29T00:39:48;11.00;99.90
32698;DHT22;19087;51.062;3.754;2023-12-29T00:42:13;11.00;99.90
32698;DHT22;19087;51.062;3.754;2023-12-29T00:44:39;10.90;99.90
32698;DHT22;19087;51.062;3.754;2023-12-29T00:47:07;10.90;99.90
32698;DHT22;19087;51.062;3.754;2023-12-29T00:49:33;10.80;99.90
32698;DHT22;19087;51.062;3.754;2023-12-29T00:51:58;10.90;99.90
32698;DHT22;19087;51.062;3.754;2023-12-29T00:54:25;10.90;99.90
32698;DHT22;19087;51.062;3.754;2023-12-29T00:56:51;10.90;99.90
32698;DHT22;19087;51.062;3.754;2023-12-29T00:59:18;10.90;99.90
32698;DHT22;19087;51.062;3.754;2023-12-29T01:01:45;11.00;99.90
32698;DHT22;19087;51.062;3.754;2023-12-29T01:04:11;10.90;99.90
32698;DHT22;19087;51.062;3.754;2023-12-29T01:06:37;11.00;99.90
32698;DHT22;19087;51.062;3.754;2023-12-29T01:09:02;10.90;99.90
32698;DHT22;19087;51.062;3.754;2023-12-29T01:11:29;10.90;99.90
32698;DHT22;19087;51.062;3.754;2023-12-29T01:13:55;11.00;99.90
32698;DHT22;19087;51.062;3.754;2023-12-29T01:16:21;11.10;99.90
32698;DHT22;19087;51.062;3.754;2023-12-29T01:18:52;11.20;99.90
32698;DHT22;19087;51.062;3.754;2023-12-29T01:21:18;10.90;99.90
32698;DHT22;19087;51.062;3.754;2023-12-29T01:23:44;10.90;99.90
32698;DHT22;19087;51.062;3.754;2023-12-29T01:26:09;10.90;99.90
32698;DHT22;19087;51.062;3.754;2023-12-29T01:28:35;10.90;99.90
32698;DHT22;19087;51.062;3.754;2023-12-29T01:31:01;11.00;99.90
32698;DHT22;19087;51.062;3.754;2023-12-29T01:33:26;11.00;99.90
32698;DHT22;19087;51.062;3.754;2023-12-29T01:35:53;11.00;99.90
32698;DHT22;19087;51.062;3.754;2023-12-29T01:38:18;11.00;99.90
32698;DHT22;19087;51.062;3.754;2023-12-29T01:40:47;10.80;99.90
32698;DHT22;19087;51.062;3.754;2023-12-29T01:43:14;10.90;99.90
32698;DHT22;19087;51.062;3.754;2023-12-29T01:45:40;11.10;99.90
32698;DHT22;19087;51.062;3.754;2023-12-29T01:48:06;11.00;99.90
32698;DHT22;19087;51.062;3.754;2023-12-29T01:50:34;11.10;99.90
32698;DHT22;19087;51.062;3.754;2023-12-29T01:53:01;10.90;99.90
32698;DHT22;19087;51.062;3.754;2023-12-29T01:55:30;11.00;99.90
32698;DHT22;19087;51.062;3.754;2023-12-29T01:57:57;11.00;99.90
32698;DHT22;19087;51.062;3.754;2023-12-29T02:00:23;11.00;99.90
32698;DHT22;19087;51.062;3.754;2023-12-29T02:02:49;11.10;99.90
32698;DHT22;19087;51.062;3.754;2023-12-29T02:05:16;11.30;99.90
32698;DHT22;19087;51.062;3.754;2023-12-29T02:07:43;11.20;99.90
32698;DHT22;19087;51.062;3.754;2023-12-29T02:10:09;11.20;99.90
32698;DHT22;19087;51.062;3.754;2023-12-29T02:12:42;11.20;99.90
32698;DHT22;19087;51.062;3.754;2023-12-29T02:15:08;11.20;99.90
32698;DHT22;19087;51.062;3.754;2023-12-29T02:17:45;11.00;99.90
32698;DHT22;19087;51.062;3.754;2023-12-29T02:20:13;10.80;99.90
32698;DHT22;19087;51.062;3.754;2023-12-29T02:22:40;10.80;99.90
32698;DHT22;19087;51.062;3.754;2023-12-29T02:25:06;10.70;99.90
32698;DHT22;19087;51.062;3.754;2023-12-29T02:30:49;11.00;99.90
32698;DHT22;19087;51.062;3.754;2023-12-29T02:33:21;10.90;99.90
32698;DHT22;19087;51.062;3.754;2023-12-29T02:35:52;10.80;99.90
32698;DHT22;19087;51.062;3.754;2023-12-29T02:38:18;10.60;99.90
32698;DHT22;19087;51.062;3.754;2023-12-29T02:40:44;10.60;99.90
32698;DHT22;19087;51.062;3.754;2023-12-29T02:43:11;10.60;99.90
32698;DHT22;19087;51.062;3.754;2023-12-29T02:45:42;10.60;99.90
32698;DHT22;19087;51.062;3.754;2023-12-29T02:48:08;10.60;99.90
32698;DHT22;19087;51.062;3.754;2023-12-29T02:50:34;10.60;99.90
32698;DHT22;19087;51.062;3.754;2023-12-29T02:53:14;10.60;99.90
32698;DHT22;19087;51.062;3.754;2023-12-29T02:55:39;10.70;99.90
32698;DHT22;19087;51.062;3.754;2023-12-29T02:58:07;10.70;99.90
32698;DHT22;19087;51.062;3.754;2023-12-29T03:00:32;10.70;99.90
32698;DHT22;19087;51.062;3.754;2023-12-29T03:02:58;10.60;99.90
32698;DHT22;19087;51.062;3.754;2023-12-29T03:05:24;10.60;99.90
32698;DHT22;19087;51.062;3.754;2023-12-29T03:07:50;10.50;99.90
32698;DHT22;19087;51.062;3.754;2023-12-29T03:10:15;10.40;99.90
32698;DHT22;19087;51.062;3.754;2023-12-29T03:12:41;10.50;99.90
32698;DHT22;19087;51.062;3.754;2023-12-29T03:15:07;10.40;99.90
32698;DHT22;19087;51.062;3.754;2023-12-29T03:17:34;10.40;99.90
32698;DHT22;19087;51.062;3.754;2023-12-29T03:20:00;10.40;99.90
32698;DHT22;19087;51.062;3.754;2023-12-29T03:22:27;10.30;99.90
32698;DHT22;19087;51.062;3.754;2023-12-29T03:24:54;10.30;99.90
32698;DHT22;19087;51.062;3.754;2023-12-29T03:27:20;10.30;99.90
32698;DHT22;19087;51.062;3.754;2023-12-29T03:29:46;10.30;99.90
32698;DHT22;19087;51.062;3.754;2023-12-29T03:32:12;10.30;99.90
32698;DHT22;19087;51.062;3.754;2023-12-29T03:34:38;10.30;99.90
32698;DHT22;19087;51.062;3.754;2023-12-29T03:37:07;10.30;99.90
32698;DHT22;19087;51.062;3.754;2023-12-29T03:39:33;10.30;99.90
32698;DHT22;19087;51.062;3.754;2023-12-29T03:42:01;10.30;99.90
32698;DHT22;19087;51.062;3.754;2023-12-29T03:44:27;10.20;99.90
32698;DHT22;19087;51.062;3.754;2023-12-29T03:46:59;10.30;99.90
32698;DHT22;19087;51.062;3.754;2023-12-29T03:49:24;10.20;99.90
32698;DHT22;19087;51.062;3.754;2023-12-29T03:51:50;10.10;99.90
32698;DHT22;19087;51.062;3.754;2023-12-29T03:54:16;10.20;99.90
32698;DHT22;19087;51.062;3.754;2023-12-29T03:56:43;10.30;99.90
32698;DHT22;19087;51.062;3.754;2023-12-29T03:59:09;10.30;99.90
32698;DHT22;19087;51.062;3.754;2023-12-29T04:01:35;10.40;99.90
32698;DHT22;19087;51.062;3.754;2023-12-29T04:04:01;10.50;99.90
32698;DHT22;19087;51.062;3.754;2023-12-29T04:06:27;10.50;99.90
32698;DHT22;19087;51.062;3.754;2023-12-29T04:08:53;10.60;99.90
32698;DHT22;19087;51.062;3.754;2023-12-29T04:11:19;10.50;99.90
32698;DHT22;19087;51.062;3.754;2023-12-29T04:13:45;10.40;99.90
32698;DHT22;19087;51.062;3.754;2023-12-29T04:16:14;10.30;99.90
32698;DHT22;19087;51.062;3.754;2023-12-29T04:18:40;10.30;99.90
32698;DHT22;19087;51.062;3.754;2023-12-29T04:21:06;10.30;99.90
32698;DHT22;19087;51.062;3.754;2023-12-29T04:23:34;10.40;99.90
32698;DHT22;19087;51.062;3.754;2023-12-29T04:26:03;10.40;99.90
32698;DHT22;19087;51.062;3.754;2023-12-29T04:28:29;10.30;99.90
32698;DHT22;19087;51.062;3.754;2023-12-29T04:30:55;10.10;99.90
32698;DHT22;19087;51.062;3.754;2023-12-29T04:33:24;10.30;99.90
32698;DHT22;19087;51.062;3.754;2023-12-29T04:35:52;10.40;99.90
32698;DHT22;19087;51.062;3.754;2023-12-29T04:38:18;10.40;99.90
32698;DHT22;19087;51.062;3.754;2023-12-29T04:40:46;10.40;99.90
32698;DHT22;19087;51.062;3.754;2023-12-29T04:43:15;10.30;99.90
32698;DHT22;19087;51.062;3.754;2023-12-29T04:45:46;10.50;99.90
32698;DHT22;19087;51.062;3.754;2023-12-29T04:48:14;10.40;99.90
32698;DHT22;19087;51.062;3.754;2023-12-29T04:50:43;10.30;99.90
32698;DHT22;19087;51.062;3.754;2023-12-29T04:53:15;10.30;99.90
32698;DHT22;19087;51.062;3.754;2023-12-29T04:55:42;10.20;99.90
32698;DHT22;19087;51.062;3.754;2023-12-29T04:58:11;10.30;99.90
32698;DHT22;19087;51.062;3.754;2023-12-29T05:00:40;10.40;99.90
32698;DHT22;19087;51.062;3.754;2023-12-29T05:03:06;10.60;99.90
32698;DHT22;19087;51.062;3.754;2023-12-29T05:05:31;10.60;99.90
32698;DHT22;19087;51.062;3.754;2023-12-29T05:07:58;10.70;99.90
32698;DHT22;19087;51.062;3.754;2023-12-29T05:10:24;10.60;99.90
32698;DHT22;19087;51.062;3.754;2023-12-29T05:12:50;10.50;99.90
32698;DHT22;19087;51.062;3.754;2023-12-29T05:15:16;10.50;99.90
32698;DHT22;19087;51.062;3.754;2023-12-29T05:17:44;10.50;99.90
32698;DHT22;19087;51.062;3.754;2023-12-29T05:20:15;10.50;99.90
32698;DHT22;19087;51.062;3.754;2023-12-29T05:22:41;10.50;99.90
32698;DHT22;19087;51.062;3.754;2023-12-29T05:25:07;10.60;99.90
32698;DHT22;19087;51.062;3.754;2023-12-29T05:27:33;10.70;99.90
32698;DHT22;19087;51.062;3.754;2023-12-29T05:29:59;10.70;99.90
32698;DHT22;19087;51.062;3.754;2023-12-29T05:32:28;10.70;99.90
32698;DHT22;19087;51.062;3.754;2023-12-29T05:34:53;10.60;99.90
32698;DHT22;19087;51.062;3.754;2023-12-29T05:37:21;10.70;99.90
32698;DHT22;19087;51.062;3.754;2023-12-29T05:39:48;10.80;99.90
32698;DHT22;19087;51.062;3.754;2023-12-29T05:42:13;10.60;99.90
32698;DHT22;19087;51.062;3.754;2023-12-29T05:44:58;10.60;99.90
32698;DHT22;19087;51.062;3.754;2023-12-29T05:48:00;10.70;99.90
32698;DHT22;19087;51.062;3.754;2023-12-29T05:50:26;10.70;99.90
32698;DHT22;19087;51.062;3.754;2023-12-29T05:52:52;10.80;99.90
32698;DHT22;19087;51.062;3.754;2023-12-29T05:55:36;10.80;99.90
32698;DHT22;19087;51.062;3.754;2023-12-29T05:58:01;10.60;99.90
32698;DHT22;19087;51.062;3.754;2023-12-29T06:00:27;10.70;99.90
32698;DHT22;19087;51.062;3.754;2023-12-29T06:02:53;10.50;99.90
32698;DHT22;19087;51.062;3.754;2023-12-29T06:05:20;10.40;99.90
32698;DHT22;19087;51.062;3.754;2023-12-29T06:07:45;10.40;99.90
32698;DHT22;19087;51.062;3.754;2023-12-29T06:10:11;10.50;99.90
32698;DHT22;19087;51.062;3.754;2023-12-29T06:12:37;10.50;99.90
32698;DHT22;19087;51.062;3.754;2023-12-29T06:15:03;10.30;99.90
32698;DHT22;19087;51.062;3.754;2023-12-29T06:17:32;10.40;99.90
32698;DHT22;19087;51.062;3.754;2023-12-29T06:19:58;10.40;99.90
32698;DHT22;19087;51.062;3.754;2023-12-29T06:22:26;10.40;99.90
32698;DHT22;19087;51.062;3.754;2023-12-29T06:24:55;10.40;99.90
32698;DHT22;19087;51.062;3.754;2023-12-29T06:27:21;10.50;99.90
32698;DHT22;19087;51.062;3.754;2023-12-29T06:29:46;10.40;99.90
32698;DHT22;19087;51.062;3.754;2023-12-29T06:32:13;10.40;99.90
32698;DHT22;19087;51.062;3.754;2023-12-29T06:34:40;10.30;99.90
32698;DHT22;19087;51.062;3.754;2023-12-29T06:37:09;10.30;99.90
32698;DHT22;19087;51.062;3.754;2023-12-29T06:39:35;10.50;99.90
32698;DHT22;19087;51.062;3.754;2023-12-29T06:42:01;10.60;99.90
32698;DHT22;19087;51.062;3.754;2023-12-29T06:44:27;10.70;99.90
32698;DHT22;19087;51.062;3.754;2023-12-29T06:46:53;10.60;99.90
32698;DHT22;19087;51.062;3.754;2023-12-29T06:49:19;10.40;99.90
32698;DHT22;19087;51.062;3.754;2023-12-29T06:51:45;10.40;99.90
32698;DHT22;19087;51.062;3.754;2023-12-29T06:54:11;10.50;99.90
32698;DHT22;19087;51.062;3.754;2023-12-29T06:56:36;10.60;99.90
32698;DHT22;19087;51.062;3.754;2023-12-29T06:59:02;10.60;99.90
32698;DHT22;19087;51.062;3.754;2023-12-29T07:01:28;10.50;99.90
32698;DHT22;19087;51.062;3.754;2023-12-29T07:03:56;10.40;99.90
32698;DHT22;19087;51.062;3.754;2023-12-29T07:06:21;10.40;99.90
32698;DHT22;19087;51.062;3.754;2023-12-29T07:08:48;10.40;99.90
32698;DHT22;19087;51.062;3.754;2023-12-29T07:11:13;10.30;99.90
32698;DHT22;19087;51.062;3.754;2023-12-29T07:13:39;10.20;99.90
32698;DHT22;19087;51.062;3.754;2023-12-29T07:16:05;10.20;99.90
32698;DHT22;19087;51.062;3.754;2023-12-29T07:18:31;10.20;99.90
32698;DHT22;19087;51.062;3.754;2023-12-29T07:20:56;10.30;99.90
32698;DHT22;19087;51.062;3.754;2023-12-29T07:23:25;10.30;99.90
32698;DHT22;19087;51.062;3.754;2023-12-29T07:25:51;10.40;99.90
32698;DHT22;19087;51.062;3.754;2023-12-29T07:28:17;10.40;99.90
32698;DHT22;19087;51.062;3.754;2023-12-29T07:30:42;10.40;99.90
32698;DHT22;19087;51.062;3.754;2023-12-29T07:33:09;10.50;99.90
32698;DHT22;19087;51.062;3.754;2023-12-29T07:35:35;10.50;99.90
32698;DHT22;19087;51.062;3.754;2023-12-29T07:38:00;10.60;99.90
32698;DHT22;19087;51.062;3.754;2023-12-29T07:40:26;10.70;99.90
32698;DHT22;19087;51.062;3.754;2023-12-29T07:42:52;10.80;99.90
32698;DHT22;19087;51.062;3.754;2023-12-29T07:45:18;10.60;99.90
32698;DHT22;19087;51.062;3.754;2023-12-29T07:47:43;10.50;99.90
32698;DHT22;19087;51.062;3.754;2023-12-29T07:50:09;10.70;99.90
32698;DHT22;19087;51.062;3.754;2023-12-29T07:52:35;10.80;99.90
32698;DHT22;19087;51.062;3.754;2023-12-29T07:55:02;10.90;99.90
32698;DHT22;19087;51.062;3.754;2023-12-29T07:57:29;11.00;99.90
32698;DHT22;19087;51.062;3.754;2023-12-29T07:59:55;11.00;99.90
32698;DHT22;19087;51.062;3.754;2023-12-29T08:02:22;10.60;99.90
32698;DHT22;19087;51.062;3.754;2023-12-29T08:04:48;10.40;99.90
32698;DHT22;19087;51.062;3.754;2023-12-29T08:07:14;10.40;99.90
32698;DHT22;19087;51.062;3.754;2023-12-29T08:09:39;10.60;99.90
32698;DHT22;19087;51.062;3.754;2023-12-29T08:12:06;10.60;99.90
32698;DHT22;19087;51.062;3.754;2023-12-29T08:14:35;10.80;99.90
32698;DHT22;19087;51.062;3.754;2023-12-29T08:17:01;10.90;99.90
32698;DHT22;19087;51.062;3.754;2023-12-29T08:19:30;10.60;99.90
32698;DHT22;19087;51.062;3.754;2023-12-29T08:21:56;10.40;99.90
32698;DHT22;19087;51.062;3.754;2023-12-29T08:24:21;10.30;99.90
32698;DHT22;19087;51.062;3.754;2023-12-29T08:26:47;10.20;99.90
32698;DHT22;19087;51.062;3.754;2023-12-29T08:29:15;10.40;99.90
32698;DHT22;19087;51.062;3.754;2023-12-29T08:31:42;10.40;99.90
32698;DHT22;19087;51.062;3.754;2023-12-29T08:34:09;10.50;99.90
32698;DHT22;19087;51.062;3.754;2023-12-29T08:36:35;10.60;99.90
32698;DHT22;19087;51.062;3.754;2023-12-29T08:39:07;10.70;99.90
32698;DHT22;19087;51.062;3.754;2023-12-29T08:41:33;10.80;99.90
32698;DHT22;19087;51.062;3.754;2023-12-29T08:43:59;10.80;99.90
32698;DHT22;19087;51.062;3.754;2023-12-29T08:46:25;10.70;99.90
32698;DHT22;19087;51.062;3.754;2023-12-29T08:48:53;10.50;99.90
32698;DHT22;19087;51.062;3.754;2023-12-29T08:51:19;10.50;99.90
32698;DHT22;19087;51.062;3.754;2023-12-29T08:53:46;10.70;99.90
32698;DHT22;19087;51.062;3.754;2023-12-29T08:56:12;10.60;99.90
32698;DHT22;19087;51.062;3.754;2023-12-29T08:58:40;10.70;99.90
32698;DHT22;19087;51.062;3.754;2023-12-29T09:01:07;10.90;99.90
32698;DHT22;19087;51.062;3.754;2023-12-29T09:03:32;10.90;99.90
32698;DHT22;19087;51.062;3.754;2023-12-29T09:05:58;11.10;99.90
32698;DHT22;19087;51.062;3.754;2023-12-29T09:08:26;11.10;99.90
32698;DHT22;19087;51.062;3.754;2023-12-29T09:10:52;10.90;99.90
32698;DHT22;19087;51.062;3.754;2023-12-29T09:13:18;11.10;99.90
32698;DHT22;19087;51.062;3.754;2023-12-29T09:15:49;11.20;99.90
32698;DHT22;19087;51.062;3.754;2023-12-29T09:18:16;11.10;99.90
32698;DHT22;19087;51.062;3.754;2023-12-29T09:20:43;11.20;99.90
32698;DHT22;19087;51.062;3.754;2023-12-29T09:23:09;11.20;99.90
32698;DHT22;19087;51.062;3.754;2023-12-29T09:25:36;11.30;99.90
32698;DHT22;19087;51.062;3.754;2023-12-29T09:28:03;11.30;99.90
32698;DHT22;19087;51.062;3.754;2023-12-29T09:30:29;11.60;99.90
32698;DHT22;19087;51.062;3.754;2023-12-29T09:32:56;11.80;99.90
32698;DHT22;19087;51.062;3.754;2023-12-29T09:35:21;11.80;99.90
32698;DHT22;19087;51.062;3.754;2023-12-29T09:37:48;11.90;99.90
32698;DHT22;19087;51.062;3.754;2023-12-29T09:40:14;11.70;99.90
32698;DHT22;19087;51.062;3.754;2023-12-29T09:42:43;11.70;99.90
32698;DHT22;19087;51.062;3.754;2023-12-29T09:45:13;11.80;99.90
32698;DHT22;19087;51.062;3.754;2023-12-29T09:47:42;12.00;99.90
32698;DHT22;19087;51.062;3.754;2023-12-29T09:50:12;12.00;99.90
32698;DHT22;19087;51.062;3.754;2023-12-29T09:52:40;11.90;99.90
32698;DHT22;19087;51.062;3.754;2023-12-29T09:55:08;11.90;99.90
32698;DHT22;19087;51.062;3.754;2023-12-29T09:57:38;12.00;99.90
32698;DHT22;19087;51.062;3.754;2023-12-29T10:00:05;11.90;99.90
32698;DHT22;19087;51.062;3.754;2023-12-29T10:02:32;12.00;99.90
32698;DHT22;19087;51.062;3.754;2023-12-29T10:05:01;12.00;99.90
32698;DHT22;19087;51.062;3.754;2023-12-29T10:07:35;12.10;99.90
32698;DHT22;19087;51.062;3.754;2023-12-29T10:10:02;12.00;99.90
32698;DHT22;19087;51.062;3.754;2023-12-29T10:12:30;12.20;99.90
32698;DHT22;19087;51.062;3.754;2023-12-29T10:15:06;12.20;99.90
32698;DHT22;19087;51.062;3.754;2023-12-29T10:20:30;11.80;99.90
32698;DHT22;19087;51.062;3.754;2023-12-29T10:23:23;11.70;99.90
32698;DHT22;19087;51.062;3.754;2023-12-29T10:25:52;11.70;99.90
32698;DHT22;19087;51.062;3.754;2023-12-29T10:28:18;11.60;99.90
32698;DHT22;19087;51.062;3.754;2023-12-29T10:30:44;11.70;99.90
32698;DHT22;19087;51.062;3.754;2023-12-29T10:33:10;11.70;99.90
32698;DHT22;19087;51.062;3.754;2023-12-29T10:35:36;11.80;99.90
32698;DHT22;19087;51.062;3.754;2023-12-29T10:38:12;12.00;99.90
32698;DHT22;19087;51.062;3.754;2023-12-29T10:40:38;12.00;99.90
32698;DHT22;19087;51.062;3.754;2023-12-29T10:43:04;11.90;99.90
32698;DHT22;19087;51.062;3.754;2023-12-29T10:45:34;11.90;99.90
32698;DHT22;19087;51.062;3.754;2023-12-29T10:48:01;12.00;99.90
32698;DHT22;19087;51.062;3.754;2023-12-29T10:50:28;12.10;99.90
32698;DHT22;19087;51.062;3.754;2023-12-29T10:53:13;12.20;99.90
32698;DHT22;19087;51.062;3.754;2023-12-29T10:55:39;12.10;99.90
32698;DHT22;19087;51.062;3.754;2023-12-29T10:58:05;12.30;99.90
32698;DHT22;19087;51.062;3.754;2023-12-29T11:00:32;12.50;99.90
32698;DHT22;19087;51.062;3.754;2023-12-29T11:03:01;12.50;99.90
32698;DHT22;19087;51.062;3.754;2023-12-29T11:05:27;12.40;99.90
32698;DHT22;19087;51.062;3.754;2023-12-29T11:07:56;12.30;99.90
32698;DHT22;19087;51.062;3.754;2023-12-29T11:10:25;12.50;99.90
32698;DHT22;19087;51.062;3.754;2023-12-29T11:12:52;12.40;99.90
32698;DHT22;19087;51.062;3.754;2023-12-29T11:15:19;12.50;99.90
32698;DHT22;19087;51.062;3.754;2023-12-29T11:17:51;12.50;99.90
32698;DHT22;19087;51.062;3.754;2023-12-29T11:20:19;12.50;99.90
32698;DHT22;19087;51.062;3.754;2023-12-29T11:22:46;12.60;99.90
32698;DHT22;19087;51.062;3.754;2023-12-29T11:25:12;12.60;99.90
32698;DHT22;19087;51.062;3.754;2023-12-29T11:27:40;12.50;99.90
32698;DHT22;19087;51.062;3.754;2023-12-29T11:30:07;12.60;99.90
32698;DHT22;19087;51.062;3.754;2023-12-29T11:32:51;12.60;99.90
32698;DHT22;19087;51.062;3.754;2023-12-29T11:36:02;12.40;99.90
32698;DHT22;19087;51.062;3.754;2023-12-29T11:44:06;12.30;99.90
32698;DHT22;19087;51.062;3.754;2023-12-29T11:46:41;12.40;99.90
32698;DHT22;19087;51.062;3.754;2023-12-29T11:49:10;12.40;99.90
32698;DHT22;19087;51.062;3.754;2023-12-29T11:51:46;12.50;99.90
32698;DHT22;19087;51.062;3.754;2023-12-29T11:54:32;12.80;99.90
32698;DHT22;19087;51.062;3.754;2023-12-29T11:56:58;12.90;99.90
32698;DHT22;19087;51.062;3.754;2023-12-29T11:59:25;13.00;99.90
32698;DHT22;19087;51.062;3.754;2023-12-29T12:01:57;12.80;99.90
32698;DHT22;19087;51.062;3.754;2023-12-29T12:04:36;12.70;99.90
32698;DHT22;19087;51.062;3.754;2023-12-29T12:09:49;12.70;99.90
32698;DHT22;19087;51.062;3.754;2023-12-29T12:12:39;12.70;99.90
32698;DHT22;19087;51.062;3.754;2023-12-29T12:17:52;12.70;99.90
32698;DHT22;19087;51.062;3.754;2023-12-29T12:20:18;12.80;99.90
32698;DHT22;19087;51.062;3.754;2023-12-29T12:22:44;12.90;99.90
32698;DHT22;19087;51.062;3.754;2023-12-29T12:25:14;13.10;99.90
32698;DHT22;19087;51.062;3.754;2023-12-29T12:27:40;13.00;99.90
32698;DHT22;19087;51.062;3.754;2023-12-29T12:30:06;13.00;99.90
32698;DHT22;19087;51.062;3.754;2023-12-29T12:32:36;13.00;99.90
32698;DHT22;19087;51.062;3.754;2023-12-29T12:35:02;13.00;99.90
32698;DHT22;19087;51.062;3.754;2023-12-29T12:37:29;13.10;99.90
32698;DHT22;19087;51.062;3.754;2023-12-29T12:39:55;13.00;99.90
32698;DHT22;19087;51.062;3.754;2023-12-29T12:42:22;13.20;99.90
32698;DHT22;19087;51.062;3.754;2023-12-29T12:44:56;13.20;99.90
32698;DHT22;19087;51.062;3.754;2023-12-29T12:47:43;12.80;99.90
32698;DHT22;19087;51.062;3.754;2023-12-29T12:50:11;12.70;99.90
32698;DHT22;19087;51.062;3.754;2023-12-29T12:52:38;12.80;99.90
32698;DHT22;19087;51.062;3.754;2023-12-29T12:55:06;12.60;99.90
32698;DHT22;19087;51.062;3.754;2023-12-29T12:57:32;12.80;99.90
32698;DHT22;19087;51.062;3.754;2023-12-29T13:00:00;12.60;99.90
32698;DHT22;19087;51.062;3.754;2023-12-29T13:02:29;12.70;99.90
32698;DHT22;19087;51.062;3.754;2023-12-29T13:04:56;12.80;99.90
32698;DHT22;19087;51.062;3.754;2023-12-29T13:07:22;12.90;99.90
32698;DHT22;19087;51.062;3.754;2023-12-29T13:09:48;13.00;99.90
32698;DHT22;19087;51.062;3.754;2023-12-29T13:12:16;12.40;99.90
32698;DHT22;19087;51.062;3.754;2023-12-29T13:14:43;12.20;99.90
32698;DHT22;19087;51.062;3.754;2023-12-29T13:17:10;12.30;99.90
32698;DHT22;19087;51.062;3.754;2023-12-29T13:19:36;12.60;99.90
32698;DHT22;19087;51.062;3.754;2023-12-29T13:22:06;12.40;99.90
32698;DHT22;19087;51.062;3.754;2023-12-29T13:24:33;12.40;99.90
32698;DHT22;19087;51.062;3.754;2023-12-29T13:27:06;12.50;99.90
32698;DHT22;19087;51.062;3.754;2023-12-29T13:29:35;12.60;99.90
32698;DHT22;19087;51.062;3.754;2023-12-29T13:40:34;12.30;99.90
32698;DHT22;19087;51.062;3.754;2023-12-29T13:43:03;12.20;99.90
32698;DHT22;19087;51.062;3.754;2023-12-29T13:45:30;12.30;99.90
32698;DHT22;19087;51.062;3.754;2023-12-29T13:47:58;12.20;99.90
32698;DHT22;19087;51.062;3.754;2023-12-29T13:50:27;12.30;99.90
32698;DHT22;19087;51.062;3.754;2023-12-29T13:52:53;12.30;99.90
32698;DHT22;19087;51.062;3.754;2023-12-29T13:55:23;12.10;99.90
32698;DHT22;19087;51.062;3.754;2023-12-29T13:57:49;12.10;99.90
32698;DHT22;19087;51.062;3.754;2023-12-29T14:00:23;12.20;99.90
32698;DHT22;19087;51.062;3.754;2023-12-29T14:05:31;12.10;99.90
32698;DHT22;19087;51.062;3.754;2023-12-29T14:10:31;12.50;99.90
32698;DHT22;19087;51.062;3.754;2023-12-29T14:13:16;12.70;99.90
32698;DHT22;19087;51.062;3.754;2023-12-29T14:15:43;12.80;99.90
32698;DHT22;19087;51.062;3.754;2023-12-29T14:20:39;12.60;99.90
32698;DHT22;19087;51.062;3.754;2023-12-29T14:23:06;12.50;99.90
32698;DHT22;19087;51.062;3.754;2023-12-29T14:25:35;12.50;99.90
32698;DHT22;19087;51.062;3.754;2023-12-29T14:28:03;12.50;99.90
32698;DHT22;19087;51.062;3.754;2023-12-29T14:30:29;12.50;99.90
32698;DHT22;19087;51.062;3.754;2023-12-29T14:32:58;12.40;99.90
32698;DHT22;19087;51.062;3.754;2023-12-29T14:35:24;12.40;99.90
32698;DHT22;19087;51.062;3.754;2023-12-29T14:37:50;12.40;99.90
32698;DHT22;19087;51.062;3.754;2023-12-29T14:40:15;12.40;99.90
32698;DHT22;19087;51.062;3.754;2023-12-29T14:42:41;12.30;99.90
32698;DHT22;19087;51.062;3.754;2023-12-29T14:45:08;12.40;99.90
32698;DHT22;19087;51.062;3.754;2023-12-29T14:47:35;12.40;99.90
32698;DHT22;19087;51.062;3.754;2023-12-29T14:50:01;12.40;99.90
32698;DHT22;19087;51.062;3.754;2023-12-29T14:52:26;12.40;99.90
32698;DHT22;19087;51.062;3.754;2023-12-29T14:54:52;12.50;99.90
32698;DHT22;19087;51.062;3.754;2023-12-29T14:57:19;12.50;99.90
32698;DHT22;19087;51.062;3.754;2023-12-29T14:59:45;12.40;99.90
32698;DHT22;19087;51.062;3.754;2023-12-29T15:02:12;12.30;99.90
32698;DHT22;19087;51.062;3.754;2023-12-29T15:04:38;12.30;99.90
32698;DHT22;19087;51.062;3.754;2023-12-29T15:07:04;12.30;99.90
32698;DHT22;19087;51.062;3.754;2023-12-29T15:09:29;12.30;99.90
32698;DHT22;19087;51.062;3.754;2023-12-29T15:11:59;12.30;99.90
32698;DHT22;19087;51.062;3.754;2023-12-29T15:14:25;12.30;99.90
32698;DHT22;19087;51.062;3.754;2023-12-29T15:16:51;12.30;99.90
32698;DHT22;19087;51.062;3.754;2023-12-29T15:19:18;12.30;99.90
32698;DHT22;19087;51.062;3.754;2023-12-29T15:21:44;12.50;99.90
32698;DHT22;19087;51.062;3.754;2023-12-29T15:24:09;12.50;99.90
32698;DHT22;19087;51.062;3.754;2023-12-29T15:26:35;12.20;99.90
32698;DHT22;19087;51.062;3.754;2023-12-29T15:29:01;12.10;99.90
32698;DHT22;19087;51.062;3.754;2023-12-29T15:31:26;12.20;99.90
32698;DHT22;19087;51.062;3.754;2023-12-29T15:33:52;12.20;99.90
32698;DHT22;19087;51.062;3.754;2023-12-29T15:36:19;12.00;99.90
32698;DHT22;19087;51.062;3.754;2023-12-29T15:38:52;12.00;99.90
32698;DHT22;19087;51.062;3.754;2023-12-29T15:41:18;12.00;99.90
32698;DHT22;19087;51.062;3.754;2023-12-29T15:43:44;11.90;99.90
32698;DHT22;19087;51.062;3.754;2023-12-29T15:46:16;11.90;99.90
32698;DHT22;19087;51.062;3.754;2023-12-29T15:48:45;11.90;99.90
32698;DHT22;19087;51.062;3.754;2023-12-29T15:51:11;11.90;99.90
32698;DHT22;19087;51.062;3.754;2023-12-29T15:53:38;11.70;99.90
32698;DHT22;19087;51.062;3.754;2023-12-29T15:56:06;11.60;99.90
32698;DHT22;19087;51.062;3.754;2023-12-29T15:58:32;11.50;99.90
32698;DHT22;19087;51.062;3.754;2023-12-29T16:00:58;11.50;99.90
32698;DHT22;19087;51.062;3.754;2023-12-29T16:03:24;11.50;99.90
32698;DHT22;19087;51.062;3.754;2023-12-29T16:05:50;11.60;99.90